createdAt,value
2023-04-28T00:02:22.301Z,5.30
2023-04-28T00:04:50.702Z,6.03
2023-04-28T00:07:18.510Z,5.33
2023-04-28T00:09:47.708Z,9.60
2023-04-28T00:12:17.625Z,5.40
2023-04-28T00:14:45.605Z,8.43
2023-04-28T00:17:13.558Z,5.13
2023-04-28T00:19:41.429Z,5.93
2023-04-28T00:22:09.593Z,6.00
2023-04-28T00:24:37.454Z,7.13
2023-04-28T00:27:07.533Z,6.20
2023-04-28T00:29:35.447Z,5.80
2023-04-28T00:32:03.552Z,7.33
2023-04-28T00:34:34.357Z,5.53
2023-04-28T00:37:02.178Z,6.10
2023-04-28T00:39:29.980Z,5.53
2023-04-28T00:41:57.806Z,5.33
2023-04-28T00:44:27.184Z,6.20
2023-04-28T00:46:55.207Z,5.70
2023-04-28T00:49:23.085Z,7.77
2023-04-28T00:51:51.162Z,5.57
2023-04-28T00:54:19.258Z,5.93
2023-04-28T00:56:47.064Z,6.03
2023-04-28T00:59:23.036Z,6.73
2023-04-28T01:01:52.372Z,6.40
2023-04-28T01:04:21.517Z,9.70
2023-04-28T01:06:49.525Z,6.63
2023-04-28T01:09:17.202Z,6.17
2023-04-28T01:11:44.938Z,6.10
2023-04-28T01:14:12.665Z,5.93
2023-04-28T01:16:44.839Z,7.70
2023-04-28T01:19:18.383Z,6.27
2023-04-28T01:21:46.745Z,6.87
2023-04-28T01:24:16.605Z,6.70
2023-04-28T01:26:44.586Z,7.73
2023-04-28T01:29:12.278Z,12.80
2023-04-28T01:31:40.199Z,7.17
2023-04-28T01:34:08.048Z,6.77
2023-04-28T01:36:37.520Z,7.83
2023-04-28T01:39:05.963Z,6.97
2023-04-28T01:41:35.123Z,8.73
2023-04-28T01:44:03.950Z,7.90
2023-04-28T01:46:31.774Z,9.20
2023-04-28T01:48:59.560Z,9.60
2023-04-28T01:51:28.135Z,8.03
2023-04-28T01:53:55.905Z,7.07
2023-04-28T01:56:23.667Z,11.37
2023-04-28T01:58:52.888Z,6.30
2023-04-28T02:01:20.939Z,7.57
2023-04-28T02:03:49.221Z,7.80
2023-04-28T02:06:17.159Z,6.73
2023-04-28T02:08:44.952Z,7.10
2023-04-28T02:11:12.765Z,6.30
2023-04-28T02:13:40.825Z,7.13
2023-04-28T02:16:10.563Z,6.73
2023-04-28T02:18:38.527Z,7.93
2023-04-28T02:21:12.465Z,7.07
2023-04-28T02:23:40.432Z,7.13
2023-04-28T02:26:08.399Z,7.23
2023-04-28T02:28:36.432Z,7.27
2023-04-28T02:31:08.119Z,8.97
2023-04-28T02:33:43.794Z,7.27
2023-04-28T02:36:12.300Z,8.47
2023-04-28T02:38:41.605Z,8.60
2023-04-28T02:41:13.260Z,7.17
2023-04-28T02:43:41.115Z,6.57
2023-04-28T02:46:08.900Z,7.57
2023-04-28T02:48:37.345Z,8.83
2023-04-28T02:51:06.842Z,9.33
2023-04-28T02:53:49.528Z,7.73
2023-04-28T02:56:17.613Z,7.70
2023-04-28T02:58:45.339Z,6.63
2023-04-28T03:01:13.182Z,7.53
2023-04-28T03:03:41.280Z,7.30
2023-04-28T03:06:10.727Z,7.07
2023-04-28T03:08:38.405Z,11.43
2023-04-28T03:11:06.389Z,8.23
2023-04-28T03:13:35.905Z,10.30
2023-04-28T03:16:03.752Z,7.47
2023-04-28T03:18:31.603Z,7.33
2023-04-28T03:20:59.626Z,9.83
2023-04-28T03:23:28.798Z,7.80
2023-04-28T03:25:56.636Z,12.63
2023-04-28T03:28:24.870Z,9.63
2023-04-28T03:30:52.649Z,10.53
2023-04-28T03:33:20.457Z,10.33
2023-04-28T03:35:48.348Z,8.70
2023-04-28T03:38:16.403Z,8.97
2023-04-28T03:40:45.650Z,8.70
2023-04-28T03:43:17.284Z,8.50
2023-04-28T03:45:45.150Z,8.07
2023-04-28T03:48:13.037Z,10.10
2023-04-28T03:50:41.029Z,9.60
2023-04-28T03:53:08.724Z,8.17
2023-04-28T03:55:36.481Z,8.00
2023-04-28T03:58:05.700Z,11.93
2023-04-28T04:00:33.474Z,8.67
2023-04-28T04:03:01.922Z,9.03
2023-04-28T04:05:29.838Z,8.43
2023-04-28T04:07:58.057Z,7.93
2023-04-28T04:10:25.931Z,7.93
2023-04-28T04:12:53.990Z,9.10
2023-04-28T04:15:23.143Z,7.77
2023-04-28T04:18:02.883Z,11.70
2023-04-28T04:20:31.168Z,8.23
2023-04-28T04:23:04.818Z,12.70
2023-04-28T04:25:35.579Z,10.23
2023-04-28T04:28:08.414Z,11.10
2023-04-28T04:30:40.474Z,10.73
2023-04-28T04:33:08.241Z,9.53
2023-04-28T04:35:38.047Z,10.80
2023-04-28T04:38:07.428Z,10.03
2023-04-28T04:40:35.181Z,12.00
2023-04-28T04:43:07.579Z,8.77
2023-04-28T04:45:35.315Z,8.80
2023-04-28T04:48:05.149Z,8.57
2023-04-28T04:50:35.176Z,8.03
2023-04-28T04:53:02.935Z,9.27
2023-04-28T04:55:30.855Z,7.60
2023-04-28T04:57:58.649Z,8.10
2023-04-28T05:00:26.493Z,8.93
2023-04-28T05:02:54.330Z,8.77
2023-04-28T05:05:24.084Z,8.27
2023-04-28T05:07:51.918Z,7.23
2023-04-28T05:10:19.947Z,7.73
2023-04-28T05:12:49.187Z,10.20
2023-04-28T05:15:17.232Z,8.83
2023-04-28T05:17:45.203Z,8.27
2023-04-28T05:20:13.591Z,8.57
2023-04-28T05:22:43.087Z,7.43
2023-04-28T05:25:11.682Z,10.30
2023-04-28T05:27:41.233Z,7.97
2023-04-28T05:30:12.466Z,8.13
2023-04-28T05:32:40.669Z,7.33
2023-04-28T05:35:09.458Z,7.80
2023-04-28T05:37:38.512Z,10.57
2023-04-28T05:40:09.447Z,10.40
2023-04-28T05:42:37.344Z,7.57
2023-04-28T05:45:05.819Z,7.67
2023-04-28T05:47:33.734Z,7.67
2023-04-28T05:50:01.697Z,7.70
2023-04-28T05:52:29.510Z,7.30
2023-04-28T05:54:57.290Z,7.43
2023-04-28T05:57:26.504Z,7.67
2023-04-28T05:59:54.371Z,7.17
2023-04-28T06:02:23.762Z,6.67
2023-04-28T06:04:52.564Z,8.00
2023-04-28T06:07:20.843Z,7.73
2023-04-28T06:09:48.941Z,7.20
2023-04-28T06:12:16.817Z,11.13
2023-04-28T06:14:46.420Z,7.10
2023-04-28T06:17:14.228Z,7.77
2023-04-28T06:19:51.731Z,7.43
2023-04-28T06:22:19.657Z,14.07
2023-04-28T06:24:47.836Z,7.37
2023-04-28T06:27:15.790Z,6.90
2023-04-28T06:29:43.721Z,7.10
2023-04-28T06:32:13.205Z,15.13
2023-04-28T06:34:41.265Z,8.53
2023-04-28T06:37:09.088Z,7.97
2023-04-28T06:39:38.154Z,6.80
2023-04-28T06:42:06.473Z,7.63
2023-04-28T06:44:36.246Z,7.33
2023-04-28T06:47:04.642Z,5.97
2023-04-28T06:49:34.154Z,7.57
2023-04-28T06:52:02.027Z,7.17
2023-04-28T06:54:29.966Z,9.67
2023-04-28T06:57:01.152Z,7.23
2023-04-28T06:59:29.141Z,6.27
2023-04-28T07:01:58.809Z,6.23
2023-04-28T07:04:29.094Z,7.17
2023-04-28T07:06:58.733Z,6.53
2023-04-28T07:09:26.575Z,8.57
2023-04-28T07:11:55.182Z,9.00
2023-04-28T07:17:22.810Z,5.30
2023-04-28T07:19:51.183Z,6.60
2023-04-28T07:22:20.541Z,6.67
2023-04-28T07:24:48.241Z,6.73
2023-04-28T07:27:16.283Z,6.80
2023-04-28T07:29:44.242Z,7.43
2023-04-28T07:32:13.996Z,7.20
2023-04-28T07:34:41.872Z,6.70
2023-04-28T07:37:11.080Z,7.00
2023-04-28T07:39:41.743Z,6.93
2023-04-28T07:42:09.579Z,8.73
2023-04-28T07:44:49.610Z,8.90
2023-04-28T07:47:17.736Z,8.83
2023-04-28T07:49:48.747Z,7.07
2023-04-28T07:52:16.891Z,6.27
2023-04-28T07:54:46.706Z,8.27
2023-04-28T07:57:14.871Z,6.13
2023-04-28T07:59:42.599Z,5.83
2023-04-28T08:02:13.314Z,6.70
2023-04-28T08:04:41.119Z,6.90
2023-04-28T08:07:09.816Z,6.33
2023-04-28T08:09:37.464Z,6.03
2023-04-28T08:12:06.857Z,7.30
2023-04-28T08:14:34.643Z,6.13
2023-04-28T08:17:02.636Z,7.97
2023-04-28T08:19:30.463Z,10.33
2023-04-28T08:21:59.998Z,6.80
2023-04-28T08:24:30.303Z,10.97
2023-04-28T08:26:58.136Z,7.37
2023-04-28T08:29:27.252Z,7.50
2023-04-28T08:31:55.115Z,7.30
2023-04-28T08:34:23.113Z,6.47
2023-04-28T08:36:51.164Z,14.20
2023-04-28T08:39:19.677Z,8.47
2023-04-28T08:41:47.431Z,10.53
2023-04-28T08:44:15.545Z,7.77
2023-04-28T08:46:48.077Z,7.63
2023-04-28T08:49:17.075Z,9.13
2023-04-28T08:51:52.585Z,6.57
2023-04-28T08:54:26.584Z,6.77
2023-04-28T08:56:55.132Z,8.83
2023-04-28T08:59:22.820Z,7.30
2023-04-28T09:01:52.167Z,7.83
2023-04-28T09:04:20.814Z,8.23
2023-04-28T09:06:48.981Z,7.17
2023-04-28T09:09:21.165Z,9.17
2023-04-28T09:11:53.241Z,6.80
2023-04-28T09:14:22.058Z,8.27
2023-04-28T09:16:51.871Z,7.53
2023-04-28T09:19:19.753Z,7.63
2023-04-28T09:21:49.463Z,10.07
2023-04-28T09:24:33.488Z,7.13
2023-04-28T09:27:02.297Z,8.17
2023-04-28T09:29:30.341Z,6.77
2023-04-28T09:32:13.897Z,8.43
2023-04-28T09:34:46.470Z,8.10
2023-04-28T09:37:18.262Z,7.37
2023-04-28T09:39:46.396Z,8.10
2023-04-28T09:42:33.403Z,8.10
2023-04-28T09:45:02.895Z,9.83
2023-04-28T09:47:35.748Z,8.30
2023-04-28T09:50:05.211Z,8.50
2023-04-28T09:52:34.450Z,8.07
2023-04-28T09:55:03.179Z,8.87
2023-04-28T09:57:32.292Z,8.47
2023-04-28T10:00:00.197Z,7.10
2023-04-28T10:05:01.245Z,8.23
2023-04-28T10:07:30.779Z,7.23
2023-04-28T10:10:00.558Z,7.67
2023-04-28T10:12:28.666Z,6.93
2023-04-28T10:14:57.567Z,6.87
2023-04-28T10:17:27.451Z,7.40
2023-04-28T10:19:55.400Z,7.40
2023-04-28T10:22:48.682Z,6.97
2023-04-28T10:25:27.681Z,7.03
2023-04-28T10:27:55.638Z,7.47
2023-04-28T10:30:28.028Z,8.10
2023-04-28T10:33:24.730Z,7.37
2023-04-28T10:35:52.566Z,7.17
2023-04-28T10:38:21.940Z,7.50
2023-04-28T10:41:03.265Z,7.57
2023-04-28T10:43:39.814Z,8.33
2023-04-28T10:46:11.358Z,7.87
2023-04-28T10:49:05.912Z,7.63
2023-04-28T10:51:38.090Z,8.47
2023-04-28T10:54:15.792Z,8.70
2023-04-28T10:56:45.493Z,8.23
2023-04-28T10:59:26.213Z,8.67
2023-04-28T11:01:54.700Z,8.17
2023-04-28T11:04:24.314Z,8.13
2023-04-28T11:07:10.425Z,8.00
2023-04-28T11:09:52.518Z,7.73
2023-04-28T11:12:20.381Z,8.03
2023-04-28T11:14:48.128Z,6.87
2023-04-28T11:17:18.687Z,7.00
2023-04-28T11:19:48.599Z,5.83
2023-04-28T11:22:17.747Z,5.90
2023-04-28T11:24:58.687Z,5.50
2023-04-28T11:27:26.938Z,6.30
2023-04-28T11:29:55.674Z,6.23
2023-04-28T11:32:27.961Z,6.87
2023-04-28T11:34:55.831Z,6.83
2023-04-28T11:37:23.946Z,6.60
2023-04-28T11:39:51.854Z,7.73
2023-04-28T11:42:22.065Z,9.27
2023-04-28T11:44:53.672Z,9.03
2023-04-28T11:47:31.385Z,9.00
2023-04-28T11:49:59.174Z,8.40
2023-04-28T11:52:27.588Z,8.33
2023-04-28T11:54:56.515Z,8.93
2023-04-28T11:57:26.682Z,9.77
2023-04-28T11:59:54.532Z,10.27
2023-04-28T12:02:27.918Z,10.33
2023-04-28T12:04:56.102Z,10.13
2023-04-28T12:07:24.660Z,10.57
2023-04-28T12:10:14.222Z,10.27
2023-04-28T12:12:50.924Z,11.53
2023-04-28T12:15:21.061Z,12.23
2023-04-28T12:17:50.745Z,12.90
2023-04-28T12:20:39.795Z,11.97
2023-04-28T12:23:08.548Z,12.30
2023-04-28T12:25:44.807Z,12.30
2023-04-28T12:28:13.993Z,12.03
2023-04-28T12:30:44.139Z,12.63
2023-04-28T12:33:29.022Z,13.00
2023-04-28T12:35:57.510Z,12.50
2023-04-28T12:38:25.284Z,12.07
2023-04-28T12:40:53.045Z,12.00
2023-04-28T12:43:24.114Z,11.83
2023-04-28T12:45:53.157Z,11.07
2023-04-28T12:48:22.357Z,10.73
2023-04-28T12:50:50.181Z,11.33
2023-04-28T12:53:18.317Z,10.93
2023-04-28T12:55:46.088Z,10.50
2023-04-28T12:58:13.939Z,9.45
2023-04-28T13:00:45.100Z,8.45
2023-04-28T13:03:13.073Z,8.80
2023-04-28T13:05:40.974Z,9.60
2023-04-28T13:08:09.039Z,9.50
2023-04-28T13:10:37.138Z,9.73
2023-04-28T13:13:05.361Z,9.25
2023-04-28T13:15:33.431Z,9.60
2023-04-28T13:18:02.635Z,9.00
2023-04-28T13:20:30.656Z,8.60
2023-04-28T13:22:58.306Z,8.80
2023-04-28T13:25:28.078Z,8.50
2023-04-28T13:27:55.814Z,8.90
2023-04-28T13:30:25.751Z,8.00
2023-04-28T13:32:54.489Z,8.32
2023-04-28T13:35:26.249Z,8.25
2023-04-28T13:40:47.957Z,8.52
2023-04-28T13:43:17.777Z,9.10
2023-04-28T13:45:47.336Z,9.00
2023-04-28T13:48:25.400Z,8.25
2023-04-28T13:50:54.761Z,7.93
2023-04-28T13:53:23.917Z,7.32
2023-04-28T13:55:53.907Z,8.15
2023-04-28T13:58:22.272Z,7.65
2023-04-28T14:00:50.368Z,7.10
2023-04-28T14:03:18.634Z,7.15
2023-04-28T14:05:49.718Z,7.72
2023-04-28T14:08:20.754Z,7.72
2023-04-28T14:10:48.981Z,7.63
2023-04-28T14:13:16.698Z,7.75
2023-04-28T14:15:57.837Z,7.68
2023-04-28T14:18:27.727Z,8.50
2023-04-28T14:20:58.155Z,7.95
2023-04-28T14:23:29.409Z,7.18
2023-04-28T14:25:58.145Z,6.68
2023-04-28T14:28:27.058Z,6.90
2023-04-28T14:30:55.163Z,6.65
2023-04-28T14:33:25.864Z,7.47
2023-04-28T14:35:53.644Z,7.75
2023-04-28T14:38:21.737Z,7.15
2023-04-28T14:40:51.537Z,7.50
2023-04-28T14:43:19.275Z,7.75
2023-04-28T14:45:50.336Z,7.53
2023-04-28T14:48:18.286Z,7.57
2023-04-28T14:50:51.293Z,6.90
2023-04-28T14:53:18.945Z,5.88
2023-04-28T14:55:47.909Z,5.90
2023-04-28T14:58:17.916Z,6.05
2023-04-28T15:00:45.769Z,5.03
2023-04-28T15:03:14.500Z,4.75
2023-04-28T15:05:44.001Z,5.38
2023-04-28T15:08:12.000Z,4.05
2023-04-28T15:10:40.524Z,4.13
2023-04-28T15:13:08.661Z,3.70
2023-04-28T15:15:37.911Z,2.15
2023-04-28T15:18:05.597Z,3.83
2023-04-28T15:20:34.111Z,2.30
2023-04-28T15:23:01.862Z,2.70
2023-04-28T15:25:29.666Z,2.53
2023-04-28T15:27:57.362Z,4.03
2023-04-28T15:30:25.183Z,2.40
2023-04-28T15:32:54.542Z,2.72
2023-04-28T15:35:22.717Z,2.70
2023-04-28T15:37:52.100Z,3.92
2023-04-28T15:40:20.975Z,2.30
2023-04-28T15:42:51.568Z,3.42
2023-04-28T15:45:20.388Z,3.90
2023-04-28T15:47:49.290Z,3.28
2023-04-28T15:50:19.912Z,3.88
2023-04-28T15:52:49.528Z,6.68
2023-04-28T15:55:17.882Z,3.40
2023-04-28T15:57:47.549Z,3.93
2023-04-28T16:00:15.955Z,3.93
2023-04-28T16:02:43.931Z,4.30
2023-04-28T16:05:12.481Z,4.80
2023-04-28T16:07:41.721Z,4.30
2023-04-28T16:10:10.383Z,5.17
2023-04-28T16:12:40.128Z,4.93
2023-04-28T16:15:09.460Z,5.80
2023-04-28T16:17:38.095Z,6.13
2023-04-28T16:20:07.266Z,6.50
2023-04-28T16:22:35.950Z,6.80
2023-04-28T16:25:05.406Z,7.93
2023-04-28T16:27:33.233Z,6.40
2023-04-28T16:30:00.958Z,5.67
2023-04-28T16:32:28.832Z,6.90
2023-04-28T16:34:58.161Z,6.57
2023-04-28T16:37:26.088Z,5.93
2023-04-28T16:42:47.417Z,4.03
2023-04-28T16:45:17.517Z,5.17
2023-04-28T16:48:07.433Z,3.13
2023-04-28T16:56:35.446Z,4.03
2023-04-28T17:02:16.152Z,3.40
2023-04-28T17:04:51.727Z,3.47
2023-04-28T17:07:46.518Z,4.00
2023-04-28T17:10:43.569Z,3.93
2023-04-28T17:31:40.360Z,6.13
2023-04-28T18:12:20.821Z,4.97
2023-04-28T18:14:50.511Z,6.67
2023-04-28T18:17:27.999Z,7.53
2023-04-28T18:20:05.763Z,6.97
2023-04-28T18:23:53.661Z,6.50
2023-04-28T18:26:22.272Z,7.07
2023-04-28T18:28:51.511Z,6.37
2023-04-28T18:32:12.145Z,8.57
2023-04-28T18:34:49.486Z,7.40
2023-04-28T18:37:24.873Z,7.13
2023-04-28T18:51:19.121Z,7.93
2023-04-28T19:01:39.191Z,10.13
2023-04-28T19:04:20.450Z,8.00
2023-04-28T19:40:01.047Z,7.63
2023-04-28T19:42:30.481Z,9.30
2023-04-28T19:44:59.245Z,8.67
2023-04-28T19:47:29.755Z,8.10
2023-04-28T19:49:57.752Z,7.93
2023-04-28T19:52:30.008Z,8.27
2023-04-28T19:55:00.714Z,8.47
2023-04-28T19:57:30.030Z,8.20
2023-04-28T20:00:01.058Z,7.43
2023-04-28T20:02:29.660Z,8.47
2023-04-28T20:04:58.657Z,10.53
2023-04-28T20:07:26.602Z,10.90
2023-04-28T20:09:56.330Z,9.77
2023-04-28T20:12:24.210Z,8.77
2023-04-28T20:14:53.713Z,9.80
2023-04-28T20:17:21.677Z,8.63
2023-04-28T20:19:49.717Z,9.53
2023-04-28T20:22:20.955Z,9.13
2023-04-28T20:24:49.044Z,8.83
2023-04-28T20:27:17.034Z,9.33
2023-04-28T20:29:45.202Z,9.50
2023-04-28T20:32:14.493Z,9.27
2023-04-28T20:34:43.218Z,8.17
2023-04-28T20:37:11.767Z,9.03
2023-04-28T20:39:39.677Z,8.97
2023-04-28T20:42:07.616Z,8.23
2023-04-28T20:44:35.840Z,8.87
2023-04-28T20:47:03.940Z,9.87
2023-04-28T20:49:33.356Z,9.57
2023-04-28T20:52:04.800Z,9.17
2023-04-28T20:54:33.618Z,9.60
2023-04-28T20:57:01.884Z,10.83
2023-04-28T20:59:32.258Z,10.00
2023-04-28T21:02:01.579Z,9.63
2023-04-28T21:04:29.494Z,9.40
2023-04-28T21:06:58.866Z,9.03
2023-04-28T21:09:26.860Z,10.33
2023-04-28T21:11:55.043Z,9.67
2023-04-28T21:14:39.088Z,8.87
2023-04-28T21:17:07.129Z,10.40
2023-04-28T21:19:35.162Z,10.03
2023-04-28T21:22:06.489Z,9.20
2023-04-28T21:24:34.373Z,10.33
2023-04-28T21:27:02.916Z,10.07
2023-04-28T21:29:32.225Z,10.17
2023-04-28T21:32:00.184Z,10.60
2023-04-28T21:34:29.456Z,11.27
2023-04-28T21:36:58.720Z,12.23
2023-04-28T21:39:27.898Z,11.93
2023-04-28T21:41:55.891Z,10.90
2023-04-28T21:44:24.454Z,13.50
2023-04-28T21:46:52.691Z,12.03
2023-04-28T21:49:20.848Z,11.43
2023-04-28T21:51:48.751Z,10.70
2023-04-28T21:54:17.090Z,11.07
2023-04-28T21:56:46.552Z,11.47
2023-04-28T21:59:14.462Z,11.53
2023-04-28T22:01:42.792Z,12.20
2023-04-28T22:04:10.932Z,12.17
2023-04-28T22:06:39.122Z,11.83
2023-04-28T22:09:07.327Z,10.53
2023-04-28T22:11:35.138Z,10.87
2023-04-28T22:14:04.970Z,11.03
2023-04-28T22:16:32.910Z,10.13
2023-04-28T22:19:02.307Z,11.53
2023-04-28T22:21:30.171Z,11.40
2023-04-28T22:23:58.316Z,11.33
2023-04-28T22:26:26.070Z,10.80
2023-04-28T22:28:54.760Z,9.33
2023-04-28T22:31:24.126Z,9.93
2023-04-28T22:33:53.396Z,10.33
2023-04-28T22:36:21.834Z,9.60
2023-04-28T22:38:50.197Z,10.70
2023-04-28T22:41:19.203Z,9.43
